sensor_id;sensor_type;location;lat;lon;timestamp;pressure;altitude;pressure_sealevel;temperature;humidity
50854;BME280;44154;45.506;-122.806;2023-02-04T00:00:09;100831.13;;;25.17;29.32
50854;BME280;44154;45.506;-122.806;2023-02-04T00:02:36;100792.88;;;24.72;29.31
50854;BME280;44154;45.506;-122.806;2023-02-04T00:05:03;100832.84;;;24.73;29.79
50854;BME280;44154;45.506;-122.806;2023-02-04T00:07:29;100833.03;;;24.50;30.03
50854;BME280;44154;45.506;-122.806;2023-02-04T00:09:55;100835.31;;;24.36;30.29
50854;BME280;44154;45.506;-122.806;2023-02-04T00:12:21;100834.38;;;24.25;30.39
50854;BME280;44154;45.506;-122.806;2023-02-04T00:14:48;100787.38;;;23.89;30.83
50854;BME280;44154;45.506;-122.806;2023-02-04T00:17:14;100843.34;;;24.59;30.58
50854;BME280;44154;45.506;-122.806;2023-02-04T00:19:40;100854.53;;;25.30;29.93
50854;BME280;44154;45.506;-122.806;2023-02-04T00:22:07;100837.13;;;25.73;29.10
50854;BME280;44154;45.506;-122.806;2023-02-04T00:24:37;100842.16;;;25.87;28.50
50854;BME280;44154;45.506;-122.806;2023-02-04T00:27:04;100845.81;;;25.60;28.99
50854;BME280;44154;45.506;-122.806;2023-02-04T00:29:30;100837.53;;;25.27;29.21
50854;BME280;44154;45.506;-122.806;2023-02-04T00:31:56;100831.81;;;24.80;29.79
50854;BME280;44154;45.506;-122.806;2023-02-04T00:34:23;100841.78;;;24.69;29.92
50854;BME280;44154;45.506;-122.806;2023-02-04T00:36:49;100849.03;;;24.58;30.07
50854;BME280;44154;45.506;-122.806;2023-02-04T00:39:15;100851.00;;;24.40;30.24
50854;BME280;44154;45.506;-122.806;2023-02-04T00:41:41;100860.44;;;24.33;30.37
50854;BME280;44154;45.506;-122.806;2023-02-04T00:44:07;100858.63;;;24.21;30.63
50854;BME280;44154;45.506;-122.806;2023-02-04T00:46:33;100870.81;;;24.31;30.87
50854;BME280;44154;45.506;-122.806;2023-02-04T00:49:00;100870.78;;;24.87;30.38
50854;BME280;44154;45.506;-122.806;2023-02-04T00:51:26;100877.75;;;25.49;29.61
50854;BME280;44154;45.506;-122.806;2023-02-04T00:53:52;100867.50;;;25.67;29.12
50854;BME280;44154;45.506;-122.806;2023-02-04T00:56:18;100883.59;;;25.58;29.02
50854;BME280;44154;45.506;-122.806;2023-02-04T00:58:44;100884.69;;;25.30;29.55
50854;BME280;44154;45.506;-122.806;2023-02-04T01:01:10;100883.81;;;25.02;29.69
50854;BME280;44154;45.506;-122.806;2023-02-04T01:03:36;100892.84;;;24.80;30.01
50854;BME280;44154;45.506;-122.806;2023-02-04T01:06:02;100897.31;;;24.64;30.45
50854;BME280;44154;45.506;-122.806;2023-02-04T01:08:29;100897.94;;;24.54;30.71
50854;BME280;44154;45.506;-122.806;2023-02-04T01:10:55;100896.78;;;24.50;30.92
50854;BME280;44154;45.506;-122.806;2023-02-04T01:13:21;100893.09;;;24.39;30.79
50854;BME280;44154;45.506;-122.806;2023-02-04T01:15:47;100893.72;;;24.24;31.27
50854;BME280;44154;45.506;-122.806;2023-02-04T01:18:13;100880.38;;;24.11;31.86
50854;BME280;44154;45.506;-122.806;2023-02-04T01:20:39;100885.69;;;24.01;31.58
50854;BME280;44154;45.506;-122.806;2023-02-04T01:23:05;100888.91;;;23.98;31.89
50854;BME280;44154;45.506;-122.806;2023-02-04T01:25:32;100884.50;;;23.97;31.87
50854;BME280;44154;45.506;-122.806;2023-02-04T01:27:58;100899.84;;;23.98;31.92
50854;BME280;44154;45.506;-122.806;2023-02-04T01:30:24;100888.81;;;23.93;32.04
50854;BME280;44154;45.506;-122.806;2023-02-04T01:32:50;100891.94;;;23.84;32.12
50854;BME280;44154;45.506;-122.806;2023-02-04T01:35:17;100890.41;;;23.88;32.02
50854;BME280;44154;45.506;-122.806;2023-02-04T01:37:43;100892.31;;;23.88;32.21
50854;BME280;44154;45.506;-122.806;2023-02-04T01:40:10;100884.72;;;23.78;32.29
50854;BME280;44154;45.506;-122.806;2023-02-04T01:42:37;100891.94;;;23.84;32.14
50854;BME280;44154;45.506;-122.806;2023-02-04T01:45:04;100894.94;;;23.83;32.23
50854;BME280;44154;45.506;-122.806;2023-02-04T01:47:33;100899.00;;;23.80;32.34
50854;BME280;44154;45.506;-122.806;2023-02-04T01:50:00;100890.69;;;23.75;32.44
50854;BME280;44154;45.506;-122.806;2023-02-04T01:52:30;100872.00;;;23.67;32.41
50854;BME280;44154;45.506;-122.806;2023-02-04T01:54:59;100894.97;;;23.71;32.82
50854;BME280;44154;45.506;-122.806;2023-02-04T01:57:26;100894.97;;;23.71;32.62
50854;BME280;44154;45.506;-122.806;2023-02-04T01:59:54;100896.66;;;23.72;34.41
50854;BME280;44154;45.506;-122.806;2023-02-04T02:05:09;100896.56;;;23.96;32.57
50854;BME280;44154;45.506;-122.806;2023-02-04T02:07:35;100902.53;;;24.49;31.94
50854;BME280;44154;45.506;-122.806;2023-02-04T02:10:05;100912.84;;;25.03;31.41
50854;BME280;44154;45.506;-122.806;2023-02-04T02:12:32;100910.75;;;25.10;31.03
50854;BME280;44154;45.506;-122.806;2023-02-04T02:14:58;100919.91;;;24.99;30.85
50854;BME280;44154;45.506;-122.806;2023-02-04T02:17:25;100915.34;;;24.82;31.21
50854;BME280;44154;45.506;-122.806;2023-02-04T02:19:51;100918.38;;;24.64;31.55
50854;BME280;44154;45.506;-122.806;2023-02-04T02:22:31;100920.59;;;24.50;31.98
50854;BME280;44154;45.506;-122.806;2023-02-04T02:24:58;100921.28;;;24.40;32.26
50854;BME280;44154;45.506;-122.806;2023-02-04T02:27:24;100903.50;;;24.20;32.00
50854;BME280;44154;45.506;-122.806;2023-02-04T02:29:50;100921.38;;;24.11;32.44
50854;BME280;44154;45.506;-122.806;2023-02-04T02:32:17;100917.31;;;23.97;32.56
50854;BME280;44154;45.506;-122.806;2023-02-04T02:34:44;100920.91;;;23.85;32.77
50854;BME280;44154;45.506;-122.806;2023-02-04T02:37:10;100925.16;;;23.76;33.08
50854;BME280;44154;45.506;-122.806;2023-02-04T02:39:38;100923.41;;;23.70;33.18
50854;BME280;44154;45.506;-122.806;2023-02-04T02:42:06;100919.50;;;23.66;33.26
50854;BME280;44154;45.506;-122.806;2023-02-04T02:44:32;100926.53;;;23.62;33.32
50854;BME280;44154;45.506;-122.806;2023-02-04T02:46:59;100930.25;;;23.55;33.53
50854;BME280;44154;45.506;-122.806;2023-02-04T02:49:28;100915.28;;;23.75;33.80
50854;BME280;44154;45.506;-122.806;2023-02-04T02:51:55;100943.56;;;24.49;32.97
50854;BME280;44154;45.506;-122.806;2023-02-04T02:54:29;100943.69;;;24.76;32.13
50854;BME280;44154;45.506;-122.806;2023-02-04T02:56:57;100948.53;;;24.69;32.06
50854;BME280;44154;45.506;-122.806;2023-02-04T02:59:25;100946.03;;;24.50;32.13
50854;BME280;44154;45.506;-122.806;2023-02-04T03:01:58;100962.00;;;24.36;32.67
50854;BME280;44154;45.506;-122.806;2023-02-04T03:04:28;100950.50;;;24.17;32.47
50854;BME280;44154;45.506;-122.806;2023-02-04T03:06:55;100961.16;;;24.02;32.61
50854;BME280;44154;45.506;-122.806;2023-02-04T03:09:23;100951.00;;;23.85;32.98
50854;BME280;44154;45.506;-122.806;2023-02-04T03:11:50;100958.63;;;23.83;32.92
50854;BME280;44154;45.506;-122.806;2023-02-04T03:14:17;100966.13;;;23.76;33.10
50854;BME280;44154;45.506;-122.806;2023-02-04T03:16:44;100969.00;;;23.69;33.14
50854;BME280;44154;45.506;-122.806;2023-02-04T03:19:11;100972.50;;;23.65;33.25
50854;BME280;44154;45.506;-122.806;2023-02-04T03:21:37;100977.56;;;23.73;36.84
50854;BME280;44154;45.506;-122.806;2023-02-04T03:24:04;100964.47;;;24.04;36.26
50854;BME280;44154;45.506;-122.806;2023-02-04T03:26:30;100970.19;;;24.53;34.55
50854;BME280;44154;45.506;-122.806;2023-02-04T03:28:58;100975.41;;;24.55;33.57
50854;BME280;44154;45.506;-122.806;2023-02-04T03:31:24;100974.91;;;24.41;33.38
50854;BME280;44154;45.506;-122.806;2023-02-04T03:33:50;100981.56;;;24.28;35.15
50854;BME280;44154;45.506;-122.806;2023-02-04T03:36:16;100979.81;;;24.05;35.53
50854;BME280;44154;45.506;-122.806;2023-02-04T03:38:43;100979.88;;;23.93;35.08
50854;BME280;44154;45.506;-122.806;2023-02-04T03:41:09;100983.72;;;23.80;35.43
50854;BME280;44154;45.506;-122.806;2023-02-04T03:43:35;100989.56;;;23.72;35.83
50854;BME280;44154;45.506;-122.806;2023-02-04T03:46:01;100985.66;;;23.68;35.37
50854;BME280;44154;45.506;-122.806;2023-02-04T03:48:27;100992.69;;;23.64;35.23
50854;BME280;44154;45.506;-122.806;2023-02-04T03:50:53;100988.19;;;23.58;35.80
50854;BME280;44154;45.506;-122.806;2023-02-04T03:53:19;100985.84;;;23.49;35.07
50854;BME280;44154;45.506;-122.806;2023-02-04T03:55:46;100983.03;;;23.44;35.35
50854;BME280;44154;45.506;-122.806;2023-02-04T03:58:13;100988.97;;;23.41;35.46
50854;BME280;44154;45.506;-122.806;2023-02-04T04:00:39;100975.81;;;23.38;35.39
50854;BME280;44154;45.506;-122.806;2023-02-04T04:03:05;100981.50;;;23.36;35.39
50854;BME280;44154;45.506;-122.806;2023-02-04T04:05:31;100979.84;;;23.35;35.37
50854;BME280;44154;45.506;-122.806;2023-02-04T04:07:57;100977.75;;;23.26;35.73
50854;BME280;44154;45.506;-122.806;2023-02-04T04:10:23;100977.03;;;23.18;35.76
50854;BME280;44154;45.506;-122.806;2023-02-04T04:12:50;100972.66;;;23.17;35.95
50854;BME280;44154;45.506;-122.806;2023-02-04T04:15:16;100985.25;;;23.18;35.89
50854;BME280;44154;45.506;-122.806;2023-02-04T04:17:42;100974.81;;;23.15;35.89
50854;BME280;44154;45.506;-122.806;2023-02-04T04:20:09;100974.81;;;23.15;35.99
50854;BME280;44154;45.506;-122.806;2023-02-04T04:22:35;100983.72;;;23.11;35.52
50854;BME280;44154;45.506;-122.806;2023-02-04T04:25:01;100995.47;;;23.11;35.66
50854;BME280;44154;45.506;-122.806;2023-02-04T04:27:27;100979.53;;;23.08;35.73
50854;BME280;44154;45.506;-122.806;2023-02-04T04:29:55;100970.72;;;23.30;35.63
50854;BME280;44154;45.506;-122.806;2023-02-04T04:32:21;100978.56;;;23.67;34.93
50854;BME280;44154;45.506;-122.806;2023-02-04T04:34:47;100986.75;;;23.96;33.93
50854;BME280;44154;45.506;-122.806;2023-02-04T04:37:14;100985.66;;;23.97;34.78
50854;BME280;44154;45.506;-122.806;2023-02-04T04:39:40;100974.19;;;23.83;34.63
50854;BME280;44154;45.506;-122.806;2023-02-04T04:42:06;100982.22;;;23.72;34.83
50854;BME280;44154;45.506;-122.806;2023-02-04T04:44:32;100972.97;;;23.62;34.81
50854;BME280;44154;45.506;-122.806;2023-02-04T04:46:58;100969.94;;;23.46;34.63
50854;BME280;44154;45.506;-122.806;2023-02-04T04:49:24;100979.81;;;23.47;34.74
50854;BME280;44154;45.506;-122.806;2023-02-04T04:51:51;100987.31;;;23.40;34.73
50854;BME280;44154;45.506;-122.806;2023-02-04T04:54:17;100981.75;;;23.35;34.73
50854;BME280;44154;45.506;-122.806;2023-02-04T04:56:43;100985.69;;;23.27;34.77
50854;BME280;44154;45.506;-122.806;2023-02-04T04:59:09;100980.72;;;23.24;34.68
50854;BME280;44154;45.506;-122.806;2023-02-04T05:01:35;100990.69;;;23.18;34.76
50854;BME280;44154;45.506;-122.806;2023-02-04T05:04:01;100991.19;;;23.15;34.97
50854;BME280;44154;45.506;-122.806;2023-02-04T05:06:28;100998.41;;;23.10;35.01
50854;BME280;44154;45.506;-122.806;2023-02-04T05:08:54;100996.16;;;23.07;34.92
50854;BME280;44154;45.506;-122.806;2023-02-04T05:11:21;100995.31;;;23.06;34.88
50854;BME280;44154;45.506;-122.806;2023-02-04T05:13:47;101000.84;;;23.35;35.25
50854;BME280;44154;45.506;-122.806;2023-02-04T05:16:13;100987.13;;;23.59;34.45
50854;BME280;44154;45.506;-122.806;2023-02-04T05:18:40;100991.31;;;23.78;33.94
50854;BME280;44154;45.506;-122.806;2023-02-04T05:21:07;101007.72;;;23.90;34.06
50854;BME280;44154;45.506;-122.806;2023-02-04T05:23:33;101003.41;;;23.82;34.28
50854;BME280;44154;45.506;-122.806;2023-02-04T05:26:00;101001.47;;;23.66;34.15
50854;BME280;44154;45.506;-122.806;2023-02-04T05:28:26;101009.31;;;23.62;34.11
50854;BME280;44154;45.506;-122.806;2023-02-04T05:30:52;100986.81;;;23.43;34.02
50854;BME280;44154;45.506;-122.806;2023-02-04T05:33:18;101007.94;;;23.48;34.35
50854;BME280;44154;45.506;-122.806;2023-02-04T05:35:44;101015.19;;;23.42;34.33
50854;BME280;44154;45.506;-122.806;2023-02-04T05:38:10;101004.19;;;23.37;34.44
50854;BME280;44154;45.506;-122.806;2023-02-04T05:40:37;101009.28;;;23.33;34.49
50854;BME280;44154;45.506;-122.806;2023-02-04T05:43:03;101008.97;;;23.30;34.40
50854;BME280;44154;45.506;-122.806;2023-02-04T05:45:32;101013.56;;;23.29;34.53
50854;BME280;44154;45.506;-122.806;2023-02-04T05:47:58;101003.88;;;23.21;34.42
50854;BME280;44154;45.506;-122.806;2023-02-04T05:50:24;100999.38;;;23.15;34.70
50854;BME280;44154;45.506;-122.806;2023-02-04T05:52:50;101020.84;;;23.24;34.57
50854;BME280;44154;45.506;-122.806;2023-02-04T05:55:16;101020.38;;;23.27;34.84
50854;BME280;44154;45.506;-122.806;2023-02-04T05:57:42;101013.66;;;23.46;34.79
50854;BME280;44154;45.506;-122.806;2023-02-04T06:00:11;101014.00;;;23.90;33.94
50854;BME280;44154;45.506;-122.806;2023-02-04T06:02:37;101019.53;;;24.24;33.65
50854;BME280;44154;45.506;-122.806;2023-02-04T06:05:03;101016.19;;;24.22;33.19
50854;BME280;44154;45.506;-122.806;2023-02-04T06:07:30;101021.00;;;24.15;33.47
50854;BME280;44154;45.506;-122.806;2023-02-04T06:09:56;101020.81;;;24.05;33.53
50854;BME280;44154;45.506;-122.806;2023-02-04T06:12:22;101016.59;;;23.85;33.47
50854;BME280;44154;45.506;-122.806;2023-02-04T06:14:48;101020.06;;;23.81;33.69
50854;BME280;44154;45.506;-122.806;2023-02-04T06:17:14;101032.47;;;23.71;34.08
50854;BME280;44154;45.506;-122.806;2023-02-04T06:19:40;101030.13;;;23.63;34.06
50854;BME280;44154;45.506;-122.806;2023-02-04T06:22:07;101012.72;;;23.52;34.14
50854;BME280;44154;45.506;-122.806;2023-02-04T06:24:33;101023.84;;;23.51;34.17
50854;BME280;44154;45.506;-122.806;2023-02-04T06:26:59;100985.69;;;23.27;34.40
50854;BME280;44154;45.506;-122.806;2023-02-04T06:29:25;101012.47;;;23.42;34.32
50854;BME280;44154;45.506;-122.806;2023-02-04T06:31:51;101018.66;;;23.37;34.33
50854;BME280;44154;45.506;-122.806;2023-02-04T06:34:17;101009.69;;;23.25;34.39
50854;BME280;44154;45.506;-122.806;2023-02-04T06:36:44;101015.50;;;23.29;34.33
50854;BME280;44154;45.506;-122.806;2023-02-04T06:39:10;101007.09;;;23.18;34.40
50854;BME280;44154;45.506;-122.806;2023-02-04T06:41:36;101015.41;;;23.24;34.50
50854;BME280;44154;45.506;-122.806;2023-02-04T06:44:02;100990.00;;;23.11;34.48
50854;BME280;44154;45.506;-122.806;2023-02-04T06:46:28;101017.53;;;23.21;34.79
50854;BME280;44154;45.506;-122.806;2023-02-04T06:48:55;101007.47;;;23.51;34.66
50854;BME280;44154;45.506;-122.806;2023-02-04T06:51:21;101010.03;;;23.98;34.01
50854;BME280;44154;45.506;-122.806;2023-02-04T06:53:47;101012.94;;;24.25;33.52
50854;BME280;44154;45.506;-122.806;2023-02-04T06:56:13;101014.38;;;24.28;33.41
50854;BME280;44154;45.506;-122.806;2023-02-04T06:58:39;101006.00;;;24.18;33.41
50854;BME280;44154;45.506;-122.806;2023-02-04T07:01:05;101017.50;;;24.03;33.34
50854;BME280;44154;45.506;-122.806;2023-02-04T07:03:32;101023.75;;;23.86;33.47
50854;BME280;44154;45.506;-122.806;2023-02-04T07:05:58;101017.75;;;23.72;33.74
50854;BME280;44154;45.506;-122.806;2023-02-04T07:08:24;101013.28;;;23.54;34.06
50854;BME280;44154;45.506;-122.806;2023-02-04T07:10:50;101015.66;;;23.51;34.09
50854;BME280;44154;45.506;-122.806;2023-02-04T07:13:16;101018.28;;;23.46;34.22
50854;BME280;44154;45.506;-122.806;2023-02-04T07:15:42;100995.19;;;23.25;34.30
50854;BME280;44154;45.506;-122.806;2023-02-04T07:18:09;101019.41;;;23.33;34.47
50854;BME280;44154;45.506;-122.806;2023-02-04T07:20:35;101020.69;;;23.30;34.45
50854;BME280;44154;45.506;-122.806;2023-02-04T07:23:01;101013.59;;;23.17;34.55
50854;BME280;44154;45.506;-122.806;2023-02-04T07:25:27;101020.84;;;23.24;34.54
50854;BME280;44154;45.506;-122.806;2023-02-04T07:27:53;101014.78;;;23.21;34.49
50854;BME280;44154;45.506;-122.806;2023-02-04T07:30:20;101018.00;;;23.18;34.61
50854;BME280;44154;45.506;-122.806;2023-02-04T07:32:47;101017.03;;;23.25;34.63
50854;BME280;44154;45.506;-122.806;2023-02-04T07:35:13;101018.38;;;23.63;34.65
50854;BME280;44154;45.506;-122.806;2023-02-04T07:37:39;101014.66;;;23.98;33.96
50854;BME280;44154;45.506;-122.806;2023-02-04T07:40:05;101004.97;;;24.07;33.69
50854;BME280;44154;45.506;-122.806;2023-02-04T07:42:32;101020.91;;;24.10;33.38
50854;BME280;44154;45.506;-122.806;2023-02-04T07:44:58;101010.25;;;23.97;33.45
50854;BME280;44154;45.506;-122.806;2023-02-04T07:47:24;101014.59;;;23.81;33.72
50854;BME280;44154;45.506;-122.806;2023-02-04T07:49:50;101015.97;;;23.66;33.87
50854;BME280;44154;45.506;-122.806;2023-02-04T07:52:16;101012.22;;;23.55;34.17
50854;BME280;44154;45.506;-122.806;2023-02-04T07:54:42;101015.31;;;23.47;34.32
50854;BME280;44154;45.506;-122.806;2023-02-04T07:57:09;101012.97;;;23.39;34.61
50854;BME280;44154;45.506;-122.806;2023-02-04T07:59:35;101010.16;;;23.34;34.73
50854;BME280;44154;45.506;-122.806;2023-02-04T08:02:01;101017.16;;;23.30;34.63
50854;BME280;44154;45.506;-122.806;2023-02-04T08:04:27;101017.03;;;23.25;34.58
50854;BME280;44154;45.506;-122.806;2023-02-04T08:06:53;101018.59;;;23.20;34.59
50854;BME280;44154;45.506;-122.806;2023-02-04T08:09:19;100995.91;;;23.08;34.73
50854;BME280;44154;45.506;-122.806;2023-02-04T08:11:45;101013.03;;;23.15;34.59
50854;BME280;44154;45.506;-122.806;2023-02-04T08:14:12;101002.84;;;23.11;34.57
50854;BME280;44154;45.506;-122.806;2023-02-04T08:16:38;101012.28;;;23.08;34.55
50854;BME280;44154;45.506;-122.806;2023-02-04T08:19:04;101009.25;;;23.16;35.13
50854;BME280;44154;45.506;-122.806;2023-02-04T08:21:30;101003.53;;;23.59;34.53
50854;BME280;44154;45.506;-122.806;2023-02-04T08:23:56;101002.84;;;24.09;33.82
50854;BME280;44154;45.506;-122.806;2023-02-04T08:26:22;101001.09;;;24.37;33.66
50854;BME280;44154;45.506;-122.806;2023-02-04T08:28:48;101001.09;;;24.37;32.96
50854;BME280;44154;45.506;-122.806;2023-02-04T08:31:15;100990.41;;;24.18;33.07
50854;BME280;44154;45.506;-122.806;2023-02-04T08:33:41;100991.31;;;24.07;33.09
50854;BME280;44154;45.506;-122.806;2023-02-04T08:36:07;100948.88;;;23.59;33.89
50854;BME280;44154;45.506;-122.806;2023-02-04T08:38:33;100998.19;;;23.81;34.13
50854;BME280;44154;45.506;-122.806;2023-02-04T08:40:59;100997.75;;;23.72;34.31
50854;BME280;44154;45.506;-122.806;2023-02-04T08:43:26;100998.16;;;23.64;34.53
50854;BME280;44154;45.506;-122.806;2023-02-04T08:45:52;101001.63;;;23.59;34.66
50854;BME280;44154;45.506;-122.806;2023-02-04T08:48:18;101001.78;;;23.52;34.93
50854;BME280;44154;45.506;-122.806;2023-02-04T08:50:44;101005.69;;;23.45;35.02
50854;BME280;44154;45.506;-122.806;2023-02-04T08:53:10;101000.41;;;23.38;34.94
50854;BME280;44154;45.506;-122.806;2023-02-04T08:55:37;101006.00;;;23.31;35.24
50854;BME280;44154;45.506;-122.806;2023-02-04T08:58:03;101007.28;;;23.29;35.12
50854;BME280;44154;45.506;-122.806;2023-02-04T09:00:29;101000.41;;;23.26;35.11
50854;BME280;44154;45.506;-122.806;2023-02-04T09:02:55;101001.75;;;23.24;35.21
50854;BME280;44154;45.506;-122.806;2023-02-04T09:05:21;101003.88;;;23.21;35.49
50854;BME280;44154;45.506;-122.806;2023-02-04T09:07:47;100995.59;;;23.16;35.09
50854;BME280;44154;45.506;-122.806;2023-02-04T09:10:14;101002.09;;;23.15;34.97
50854;BME280;44154;45.506;-122.806;2023-02-04T09:12:40;100997.72;;;23.14;34.77
50854;BME280;44154;45.506;-122.806;2023-02-04T09:15:09;101000.00;;;23.46;35.09
50854;BME280;44154;45.506;-122.806;2023-02-04T09:17:35;101000.75;;;23.99;34.29
50854;BME280;44154;45.506;-122.806;2023-02-04T09:20:02;100992.84;;;24.32;33.69
50854;BME280;44154;45.506;-122.806;2023-02-04T09:22:28;101001.78;;;24.44;33.19
50854;BME280;44154;45.506;-122.806;2023-02-04T09:24:54;101002.19;;;24.36;33.04
50854;BME280;44154;45.506;-122.806;2023-02-04T09:27:21;100996.47;;;24.20;33.11
50854;BME280;44154;45.506;-122.806;2023-02-04T09:29:47;100994.63;;;24.09;33.33
50854;BME280;44154;45.506;-122.806;2023-02-04T09:32:13;100987.59;;;23.96;33.44
50854;BME280;44154;45.506;-122.806;2023-02-04T09:34:39;100988.22;;;23.86;33.53
50854;BME280;44154;45.506;-122.806;2023-02-04T09:37:05;100983.09;;;23.78;33.70
50854;BME280;44154;45.506;-122.806;2023-02-04T09:39:31;100975.97;;;23.60;33.82
50854;BME280;44154;45.506;-122.806;2023-02-04T09:41:58;100982.50;;;23.59;33.82
50854;BME280;44154;45.506;-122.806;2023-02-04T09:44:25;100987.03;;;23.53;33.91
50854;BME280;44154;45.506;-122.806;2023-02-04T09:46:57;100985.28;;;23.47;34.03
50854;BME280;44154;45.506;-122.806;2023-02-04T09:49:25;100980.78;;;23.41;34.24
50854;BME280;44154;45.506;-122.806;2023-02-04T09:51:53;100972.25;;;23.37;34.20
50854;BME280;44154;45.506;-122.806;2023-02-04T09:54:21;100963.97;;;23.32;34.14
50854;BME280;44154;45.506;-122.806;2023-02-04T09:56:47;100966.56;;;23.27;34.29
50854;BME280;44154;45.506;-122.806;2023-02-04T09:59:17;100968.97;;;23.24;34.27
50854;BME280;44154;45.506;-122.806;2023-02-04T10:01:44;100966.69;;;23.20;34.22
50854;BME280;44154;45.506;-122.806;2023-02-04T10:04:12;100968.03;;;23.18;34.37
50854;BME280;44154;45.506;-122.806;2023-02-04T10:06:40;100970.16;;;23.16;34.25
50854;BME280;44154;45.506;-122.806;2023-02-04T10:09:11;100974.81;;;23.15;34.16
50854;BME280;44154;45.506;-122.806;2023-02-04T10:11:41;100973.13;;;23.14;34.13
50854;BME280;44154;45.506;-122.806;2023-02-04T10:14:17;100975.28;;;23.12;34.25
50854;BME280;44154;45.506;-122.806;2023-02-04T10:16:55;100970.88;;;23.11;34.19
50854;BME280;44154;45.506;-122.806;2023-02-04T10:19:22;100973.47;;;23.06;34.39
50854;BME280;44154;45.506;-122.806;2023-02-04T10:21:49;100974.81;;;23.15;38.33
50854;BME280;44154;45.506;-122.806;2023-02-04T10:24:20;100964.78;;;23.33;39.23
50854;BME280;44154;45.506;-122.806;2023-02-04T10:26:50;100975.81;;;23.67;37.17
50854;BME280;44154;45.506;-122.806;2023-02-04T10:29:21;100967.88;;;23.82;35.14
50854;BME280;44154;45.506;-122.806;2023-02-04T10:31:50;100984.22;;;23.77;34.93
50854;BME280;44154;45.506;-122.806;2023-02-04T10:36:45;100966.84;;;23.54;35.13
50854;BME280;44154;45.506;-122.806;2023-02-04T10:39:21;100958.94;;;23.41;35.34
50854;BME280;44154;45.506;-122.806;2023-02-04T10:41:53;100951.63;;;23.30;35.34
50854;BME280;44154;45.506;-122.806;2023-02-04T10:44:25;100965.75;;;23.27;35.59
50854;BME280;44154;45.506;-122.806;2023-02-04T10:47:03;100973.81;;;23.21;35.81
50854;BME280;44154;45.506;-122.806;2023-02-04T10:49:30;100963.28;;;23.13;35.80
50854;BME280;44154;45.506;-122.806;2023-02-04T10:51:56;100961.00;;;23.10;35.81
50854;BME280;44154;45.506;-122.806;2023-02-04T10:54:26;100956.16;;;23.00;35.93
50854;BME280;44154;45.506;-122.806;2023-02-04T10:57:07;100968.50;;;23.03;35.87
50854;BME280;44154;45.506;-122.806;2023-02-04T10:59:36;100971.72;;;23.00;37.24
50854;BME280;44154;45.506;-122.806;2023-02-04T11:02:23;100962.91;;;23.21;40.11
50854;BME280;44154;45.506;-122.806;2023-02-04T11:04:52;100975.28;;;23.53;39.02
50854;BME280;44154;45.506;-122.806;2023-02-04T11:07:28;100972.84;;;23.85;36.94
50854;BME280;44154;45.506;-122.806;2023-02-04T11:09:55;100958.16;;;23.86;35.24
50854;BME280;44154;45.506;-122.806;2023-02-04T11:12:39;100966.94;;;23.88;34.99
50854;BME280;44154;45.506;-122.806;2023-02-04T11:15:35;100965.06;;;23.77;35.24
50854;BME280;44154;45.506;-122.806;2023-02-04T11:18:08;100970.00;;;23.63;35.51
50854;BME280;44154;45.506;-122.806;2023-02-04T11:20:35;100962.94;;;23.50;35.58
50854;BME280;44154;45.506;-122.806;2023-02-04T11:23:30;100953.72;;;23.40;35.88
50854;BME280;44154;45.506;-122.806;2023-02-04T11:26:12;100956.00;;;23.31;35.95
50854;BME280;44154;45.506;-122.806;2023-02-04T11:29:06;100959.13;;;23.23;36.08
50854;BME280;44154;45.506;-122.806;2023-02-04T11:37:05;100959.81;;;23.06;36.05
50854;BME280;44154;45.506;-122.806;2023-02-04T11:42:05;100949.38;;;23.03;36.28
50854;BME280;44154;45.506;-122.806;2023-02-04T11:44:39;100894.75;;;22.74;38.94
50854;BME280;44154;45.506;-122.806;2023-02-04T11:47:08;100945.66;;;23.33;39.47
50854;BME280;44154;45.506;-122.806;2023-02-04T11:49:35;100935.97;;;23.54;37.98
50854;BME280;44154;45.506;-122.806;2023-02-04T11:52:06;100878.09;;;23.57;36.30
50854;BME280;44154;45.506;-122.806;2023-02-04T11:54:34;100930.75;;;23.98;35.34
50854;BME280;44154;45.506;-122.806;2023-02-04T11:57:01;100932.47;;;23.87;35.14
50854;BME280;44154;45.506;-122.806;2023-02-04T11:59:27;100920.91;;;23.68;35.37
50854;BME280;44154;45.506;-122.806;2023-02-04T12:02:16;100920.25;;;23.61;35.59
50854;BME280;44154;45.506;-122.806;2023-02-04T12:04:55;100920.53;;;23.48;35.80
50854;BME280;44154;45.506;-122.806;2023-02-04T12:07:28;100923.91;;;23.38;35.82
50854;BME280;44154;45.506;-122.806;2023-02-04T12:09:54;100917.78;;;23.31;35.79
50854;BME280;44154;45.506;-122.806;2023-02-04T12:12:29;100920.16;;;23.27;35.97
50854;BME280;44154;45.506;-122.806;2023-02-04T12:15:41;100912.69;;;23.23;35.96
50854;BME280;44154;45.506;-122.806;2023-02-04T12:18:06;100915.56;;;23.16;35.89
50854;BME280;44154;45.506;-122.806;2023-02-04T12:20:33;100908.09;;;23.11;35.93
50854;BME280;44154;45.506;-122.806;2023-02-04T12:22:59;100910.69;;;23.06;36.04
50854;BME280;44154;45.506;-122.806;2023-02-04T12:25:25;100910.84;;;22.99;36.01
50854;BME280;44154;45.506;-122.806;2023-02-04T12:27:53;100908.59;;;22.96;36.83
50854;BME280;44154;45.506;-122.806;2023-02-04T12:30:21;100903.19;;;23.25;39.34
50854;BME280;44154;45.506;-122.806;2023-02-04T12:32:48;100904.25;;;23.53;37.74
50854;BME280;44154;45.506;-122.806;2023-02-04T12:35:14;100904.78;;;23.84;36.24